createdAt,value
2022-09-06T00:00:19.568Z,1021.430475115796
2022-09-06T00:06:41.277Z,1021.3991003358323
2022-09-06T00:13:03.273Z,1021.4228279095622
2022-09-06T00:19:25.450Z,1021.434577717825
2022-09-06T00:25:53.284Z,1021.3794801843404
2022-09-06T00:34:15.930Z,1021.3468245571784
2022-09-06T00:40:37.574Z,1021.3299665514879
2022-09-06T00:46:59.443Z,1021.2816409827484
2022-09-06T00:57:08.334Z,1021.2341037142577
2022-09-06T01:03:30.667Z,1021.2514624570422
2022-09-06T01:12:58.877Z,1021.1601872153619
2022-09-06T01:19:20.578Z,1021.1393826809617
2022-09-06T01:29:19.083Z,1021.1026877890856
2022-09-06T01:35:40.736Z,1021.0010210278924
2022-09-06T01:42:02.671Z,1021.0325421715432
2022-09-06T01:48:30.290Z,1021.0891836900702
2022-09-06T01:57:57.462Z,1021.0611028474618
2022-09-06T02:04:19.297Z,1021.0034455440519
2022-09-06T02:16:56.296Z,1020.8841370454194
2022-09-06T02:23:21.944Z,1020.8529229383042
2022-09-06T02:30:12.922Z,1020.8697003558988
2022-09-06T02:36:34.613Z,1020.8030131035755
2022-09-06T02:44:23.242Z,1020.8036626559483
2022-09-06T02:50:44.710Z,1020.8058005472352
2022-09-06T02:58:41.337Z,1020.7517662981304
2022-09-06T03:06:52.625Z,1020.680017033791
2022-09-06T03:19:34.089Z,1020.6322327683143
2022-09-06T03:26:04.849Z,1020.5506157259446
2022-09-06T03:32:26.673Z,1020.3844248368626
2022-09-06T03:41:48.829Z,1020.2744574106079
2022-09-06T03:48:10.782Z,1020.2922766211647
2022-09-06T03:54:32.383Z,1020.2958114012133
2022-09-06T04:00:53.927Z,1020.3057494885662
2022-09-06T04:07:15.508Z,1020.4187784227144
2022-09-06T04:13:37.063Z,1020.4035936102748
2022-09-06T04:19:58.682Z,1020.417511422278
2022-09-06T04:26:33.231Z,1020.364824275498
2022-09-06T04:32:55.061Z,1020.3074109226977
2022-09-06T04:39:16.729Z,1020.3209238437419
2022-09-06T04:45:38.517Z,1020.3076978756156
2022-09-06T04:52:04.256Z,1020.2920130986025
2022-09-06T04:58:41.467Z,1020.2056989495097
2022-09-06T05:05:02.864Z,1020.2188475632374
2022-09-06T05:11:24.577Z,1020.2361257282573
2022-09-06T05:17:46.176Z,1020.2720936222186
2022-09-06T05:24:17.591Z,1020.2725270713478
2022-09-06T05:36:11.494Z,1020.1973923035412
2022-09-06T05:43:45.031Z,1020.3302287394539
2022-09-06T05:54:43.703Z,1020.7714009815362
2022-09-06T06:04:39.210Z,1020.859547106122
2022-09-06T06:11:01.713Z,1020.6184039017288
2022-09-06T06:17:23.213Z,1020.496202356424
2022-09-06T06:23:55.157Z,1020.3400407684737
2022-09-06T06:38:37.256Z,1020.0830503118237
2022-09-06T06:44:59.166Z,1020.117841495325
2022-09-06T06:51:20.406Z,1020.2488457527719
2022-09-06T07:02:51.715Z,1020.5287076681934
2022-09-06T07:09:13.165Z,1020.629802927834
2022-09-06T07:26:16.699Z,1020.8066815610654
2022-09-06T07:32:38.703Z,1020.8025236851104
2022-09-06T07:54:19.417Z,1020.9140054778335
2022-09-06T08:00:52.176Z,1020.8732799170618
2022-09-06T08:07:40.136Z,1020.8069086995557
2022-09-06T08:18:21.360Z,1020.9127154562545
2022-09-06T08:26:02.840Z,1020.8544223285471
2022-09-06T08:35:16.013Z,1020.9148233924351
2022-09-06T08:51:50.789Z,1020.8097074926918
2022-09-06T09:02:28.681Z,1020.6358127026986
2022-09-06T09:08:52.001Z,1020.541331237131
2022-09-06T09:15:15.557Z,1020.4384939760342
2022-09-06T09:21:37.881Z,1020.4388630792508
2022-09-06T09:28:08.348Z,1020.5172829442783
2022-09-06T09:34:35.666Z,1020.5100672910503
2022-09-06T09:41:11.442Z,1020.512794570764
2022-09-06T09:47:33.115Z,1020.4124144379412
2022-09-06T09:56:34.392Z,1020.2949684314133
2022-09-06T10:02:58.728Z,1020.292824458567
2022-09-06T10:13:40.160Z,1020.2305847027792
2022-09-06T10:20:05.919Z,1020.1608803286985
2022-09-06T10:27:01.071Z,1020.1995124590718
2022-09-06T10:33:23.585Z,1020.3069367598949
2022-09-06T10:42:18.829Z,1020.3539908532862
2022-09-06T10:48:41.471Z,1020.4110209001007
2022-09-06T10:55:03.111Z,1020.4421451975605
2022-09-06T11:01:24.893Z,1020.506123584561
2022-09-06T11:14:38.042Z,1020.3739089382184
2022-09-06T11:21:00.227Z,1020.3357719465743
2022-09-06T11:45:36.113Z,1020.2996686644109
2022-09-06T11:51:58.157Z,1020.2905725899003
2022-09-06T11:58:20.646Z,1020.3236111476369
2022-09-06T12:04:42.760Z,1020.3144370304013
2022-09-06T12:11:04.876Z,1020.3356382012948
2022-09-06T12:22:53.550Z,1020.2911890473114
2022-09-06T12:29:17.277Z,1020.215837720532
2022-09-06T12:35:58.151Z,1020.0902019352917
2022-09-06T12:42:24.600Z,1020.068118119544
2022-09-06T12:48:46.419Z,1020.0042909403811
2022-09-06T12:55:07.851Z,1019.9067039839358
2022-09-06T13:01:29.691Z,1019.8722076710301
2022-09-06T13:07:52.187Z,1019.8343686655458
2022-09-06T13:14:14.521Z,1019.7433905801597
2022-09-06T13:25:36.939Z,1019.5424816436736
2022-09-06T13:32:03.731Z,1019.5026252956346
2022-09-06T13:38:36.361Z,1019.4521780623874
2022-09-06T13:48:03.510Z,1019.4741153011994
2022-09-06T13:54:44.104Z,1019.4344276358418
2022-09-06T14:05:10.772Z,1019.3443993876799
2022-09-06T14:11:37.727Z,1019.28894715356
2022-09-06T14:18:00.319Z,1019.2878280350324
2022-09-06T14:24:31.903Z,1019.218709496993
2022-09-06T14:30:56.035Z,1019.1615108357278
2022-09-06T14:42:50.820Z,1019.100866662477
2022-09-06T14:51:27.090Z,1018.9682867053727
2022-09-06T14:58:45.185Z,1018.9542654427165
2022-09-06T15:05:42.398Z,1018.8478476480872
2022-09-06T15:23:42.140Z,1018.767087779764
2022-09-06T15:30:04.161Z,1018.7436385728851
2022-09-06T15:36:27.823Z,1018.6841728781055
2022-09-06T15:43:18.788Z,1018.6149407257788
2022-09-06T15:49:41.027Z,1018.6072230330005
2022-09-06T15:56:04.560Z,1018.571508294811
2022-09-06T16:02:32.198Z,1018.5014235312777
2022-09-06T16:08:55.805Z,1018.3271379947863
2022-09-06T16:15:18.753Z,1018.2919045402969
2022-09-06T16:21:44.289Z,1018.3092433142616
2022-09-06T16:28:18.923Z,1018.2762536562806
2022-09-06T16:34:52.175Z,1018.2135543743055
2022-09-06T16:41:21.214Z,1018.0705540106151
2022-09-06T16:47:47.100Z,1018.0177655538283
2022-09-06T16:54:15.368Z,1018.0792762722624
2022-09-06T17:00:40.851Z,1018.1312917144844
2022-09-06T17:07:06.181Z,1018.0744388230504
2022-09-06T17:13:30.772Z,1018.0299087994849
2022-09-06T17:19:55.737Z,1017.9400266603828
2022-09-06T17:26:26.533Z,1017.9448392436705
2022-09-06T17:33:13.874Z,1017.9650314384902
2022-09-06T17:40:42.067Z,1018.05868867727
2022-09-06T17:47:13.362Z,1018.1310119047636
2022-09-06T17:53:36.252Z,1018.1758562648937
2022-09-06T17:59:59.230Z,1018.2516802072174
2022-09-06T18:11:17.523Z,1018.3854839578577
2022-09-06T18:17:39.152Z,1018.3643701684089
2022-09-06T18:24:12.581Z,1018.332018924565
2022-09-06T18:36:09.877Z,1018.2985127322254
2022-09-06T18:42:32.368Z,1018.2865273911511
2022-09-06T18:48:57.025Z,1018.2755136023097
2022-09-06T18:55:23.216Z,1018.3099746805339
2022-09-06T19:01:48.395Z,1018.3635578455071
2022-09-06T19:10:34.678Z,1018.4717040102652
2022-09-06T19:17:01.088Z,1018.4351913716938
2022-09-06T19:23:31.173Z,1018.3751230096857
2022-09-06T19:32:00.667Z,1018.34919786578
2022-09-06T19:39:01.452Z,1018.276626961623
2022-09-06T19:45:31.285Z,1018.2451216101218
2022-09-06T19:52:02.065Z,1018.2185891583388
2022-09-06T19:58:39.034Z,1018.175991600936
2022-09-06T20:05:09.001Z,1018.1330706238331
2022-09-06T20:11:40.134Z,1018.0998732121169
2022-09-06T20:18:11.823Z,1018.0646616172826
2022-09-06T20:24:40.229Z,1018.0575457803707
2022-09-06T20:31:03.910Z,1018.0215772368714
2022-09-06T20:41:07.184Z,1017.8902413104076
2022-09-06T20:47:33.558Z,1017.713036996373
2022-09-06T20:55:10.446Z,1017.6096853120351
2022-09-06T21:03:43.358Z,1017.4559701835012
2022-09-06T21:10:04.844Z,1017.3734489070433
2022-09-06T21:16:26.329Z,1017.2847433979878
2022-09-06T21:22:49.066Z,1017.2651241069797
2022-09-06T21:29:14.600Z,1017.1784911801385
2022-09-06T21:35:36.303Z,1017.125073077064
2022-09-06T21:44:34.436Z,1017.1599088178654
2022-09-06T21:59:50.301Z,1017.2280159793513
2022-09-06T22:06:12.487Z,1017.2706482296352
2022-09-06T22:12:33.246Z,1017.1996428447471
2022-09-06T22:18:54.402Z,1017.0602465270972
2022-09-06T22:29:53.495Z,1017.1698307882089
2022-09-06T22:37:32.804Z,1017.122393618871
2022-09-06T22:52:59.134Z,1016.973252598147
2022-09-06T22:59:20.759Z,1016.8431069790544
2022-09-06T23:05:41.531Z,1016.7541134146978
2022-09-06T23:12:02.766Z,1016.811529195386
2022-09-06T23:18:24.019Z,1016.7505656039859
2022-09-06T23:24:53.647Z,1016.6965185375773
2022-09-06T23:31:14.568Z,1016.6439523170577
2022-09-06T23:39:57.585Z,1016.5155330689935
2022-09-06T23:51:43.534Z,1016.4165520545811
2022-09-06T23:58:04.477Z,1016.3493568114209
